createdAt,value
2019-02-18T00:01:09.047Z,7.80
2019-02-18T00:03:13.664Z,7.80
2019-02-18T00:05:18.312Z,7.80
2019-02-18T00:07:23.328Z,7.80
2019-02-18T00:09:28.564Z,7.80
2019-02-18T00:11:52.283Z,7.80
2019-02-18T00:13:57.897Z,7.80
2019-02-18T00:16:02.925Z,7.80
2019-02-18T00:18:08.016Z,7.70
2019-02-18T00:20:13.679Z,7.70
2019-02-18T00:22:21.985Z,7.70
2019-02-18T00:24:27.271Z,7.70
2019-02-18T00:26:31.989Z,7.70
2019-02-18T00:28:37.090Z,7.70
2019-02-18T00:31:00.692Z,7.60
2019-02-18T00:33:05.890Z,7.60
2019-02-18T00:35:10.879Z,7.60
2019-02-18T00:37:24.480Z,7.60
2019-02-18T00:39:24.620Z,7.60
2019-02-18T00:41:29.640Z,7.60
2019-02-18T00:43:54.428Z,7.60
2019-02-18T00:45:58.968Z,7.50
2019-02-18T00:48:03.819Z,7.50
2019-02-18T00:50:08.245Z,7.50
2019-02-18T00:52:13.015Z,7.50
2019-02-18T00:54:36.926Z,7.50
2019-02-18T00:56:41.721Z,7.50
2019-02-18T00:58:46.346Z,7.50
2019-02-18T01:01:09.788Z,7.50
2019-02-18T01:03:14.572Z,7.40
2019-02-18T01:05:19.672Z,7.40
2019-02-18T01:07:34.260Z,7.40
2019-02-18T01:09:30.505Z,7.40
2019-02-18T01:11:35.382Z,7.40
2019-02-18T01:13:43.391Z,7.40
2019-02-18T01:16:00.018Z,7.30
2019-02-18T01:18:18.545Z,7.40
2019-02-18T01:20:23.494Z,7.30
2019-02-18T01:22:28.073Z,7.30
2019-02-18T01:24:32.689Z,7.30
2019-02-18T01:26:37.150Z,7.20
2019-02-18T01:28:45.412Z,7.30
2019-02-18T01:30:50.148Z,7.20
2019-02-18T01:32:55.143Z,7.20
2019-02-18T01:35:18.739Z,7.20
2019-02-18T01:37:23.391Z,7.20
2019-02-18T01:39:46.817Z,7.20
2019-02-18T01:41:51.238Z,7.20
2019-02-18T01:43:55.927Z,7.20
2019-02-18T01:46:00.315Z,7.20
2019-02-18T01:53:12.354Z,7.20
2019-02-18T01:55:17.086Z,7.20
2019-02-18T01:57:21.499Z,7.20
2019-02-18T02:02:08.862Z,7.10
2019-02-18T02:04:13.250Z,7.20
2019-02-18T02:06:17.720Z,7.20
2019-02-18T02:08:22.160Z,7.20
2019-02-18T02:10:48.074Z,7.10
2019-02-18T02:17:33.530Z,7.00
2019-02-18T02:19:39.355Z,7.00
2019-02-18T02:21:44.155Z,7.00
2019-02-18T02:23:48.984Z,7.00
2019-02-18T02:25:53.503Z,7.00
2019-02-18T02:27:57.969Z,7.00
2019-02-18T02:30:02.498Z,7.00
2019-02-18T02:32:07.337Z,7.00
2019-02-18T02:34:12.108Z,7.00
2019-02-18T02:36:16.605Z,6.90
2019-02-18T02:38:21.059Z,6.90
2019-02-18T02:40:44.528Z,6.90
2019-02-18T02:42:48.878Z,6.90
2019-02-18T02:44:53.364Z,6.90
2019-02-18T02:46:57.771Z,6.90
2019-02-18T02:49:22.744Z,6.90
2019-02-18T02:51:27.490Z,6.80
2019-02-18T02:53:32.907Z,6.70
2019-02-18T02:55:38.039Z,6.70
2019-02-18T02:57:42.532Z,6.60
2019-02-18T03:00:06.634Z,6.60
2019-02-18T03:02:11.566Z,6.50
2019-02-18T03:04:16.394Z,6.50
2019-02-18T03:06:20.795Z,6.50
2019-02-18T03:08:25.766Z,6.50
2019-02-18T03:11:08.402Z,6.60
2019-02-18T03:13:13.137Z,6.50
2019-02-18T03:15:18.345Z,6.50
2019-02-18T03:17:23.716Z,6.60
2019-02-18T03:19:28.108Z,6.60
2019-02-18T03:21:33.502Z,6.60
2019-02-18T03:23:38.502Z,6.60
2019-02-18T03:25:43.473Z,6.60
2019-02-18T03:27:48.144Z,6.70
2019-02-18T03:30:30.573Z,6.60
2019-02-18T03:32:56.626Z,6.60
2019-02-18T03:35:02.331Z,6.60
2019-02-18T03:37:07.104Z,6.50
2019-02-18T03:39:11.574Z,6.50
2019-02-18T03:41:34.982Z,6.60
2019-02-18T03:43:39.506Z,6.50
2019-02-18T03:46:03.290Z,6.50
2019-02-18T03:48:19.629Z,6.50
2019-02-18T03:55:04.302Z,6.40
2019-02-18T03:57:08.741Z,6.40
2019-02-18T03:59:13.531Z,6.40
2019-02-18T04:01:17.874Z,6.40
2019-02-18T04:05:32.335Z,6.50
2019-02-18T04:07:36.710Z,6.50
2019-02-18T04:09:41.449Z,6.40
2019-02-18T04:12:05.325Z,6.40
2019-02-18T04:14:10.256Z,6.30
2019-02-18T04:16:15.137Z,6.30
2019-02-18T04:18:38.707Z,6.30
2019-02-18T04:20:43.183Z,6.30
2019-02-18T04:22:48.819Z,6.30
2019-02-18T04:24:53.813Z,6.40
2019-02-18T04:26:58.916Z,6.40
2019-02-18T04:29:05.972Z,6.40
2019-02-18T04:31:10.728Z,6.40
2019-02-18T04:33:15.133Z,6.40
2019-02-18T04:35:19.541Z,6.40
2019-02-18T04:37:24.253Z,6.30
2019-02-18T04:39:28.650Z,6.20
2019-02-18T04:41:52.101Z,6.20
2019-02-18T04:43:59.554Z,6.20
2019-02-18T04:46:04.303Z,6.20
2019-02-18T04:48:08.849Z,6.20
2019-02-18T04:50:13.221Z,6.20
2019-02-18T04:52:36.965Z,6.20
2019-02-18T04:54:41.659Z,6.20
2019-02-18T04:56:45.996Z,6.20
2019-02-18T04:58:51.063Z,6.20
2019-02-18T05:00:55.932Z,6.20
2019-02-18T05:03:00.318Z,6.20
2019-02-18T05:05:04.811Z,6.10
2019-02-18T05:07:09.231Z,6.10
2019-02-18T05:09:13.701Z,6.00
2019-02-18T05:11:37.474Z,6.10
2019-02-18T05:13:41.883Z,6.10
2019-02-18T05:15:46.648Z,6.10
2019-02-18T05:17:51.049Z,6.10
2019-02-18T05:20:14.534Z,6.20
2019-02-18T05:22:37.983Z,6.20
2019-02-18T05:24:54.605Z,6.20
2019-02-18T05:27:00.102Z,6.10
2019-02-18T05:29:04.495Z,6.10
2019-02-18T05:31:09.350Z,6.10
2019-02-18T05:33:14.188Z,6.10
2019-02-18T05:40:29.015Z,6.20
2019-02-18T05:42:33.912Z,6.10
2019-02-18T05:44:38.508Z,6.10
2019-02-18T05:46:43.342Z,6.00
2019-02-18T05:48:48.140Z,6.00
2019-02-18T05:50:53.102Z,5.90
2019-02-18T05:52:57.640Z,5.90
2019-02-18T05:55:02.030Z,5.90
2019-02-18T05:57:06.847Z,5.80
2019-02-18T05:59:11.979Z,5.80
2019-02-18T06:01:18.672Z,5.80
2019-02-18T06:03:23.414Z,5.80
2019-02-18T06:05:47.041Z,5.80
2019-02-18T06:07:51.493Z,5.80
2019-02-18T06:09:56.199Z,5.80
2019-02-18T06:12:00.661Z,5.80
2019-02-18T06:14:05.114Z,5.70
2019-02-18T06:16:30.084Z,5.70
2019-02-18T06:18:35.068Z,5.80
2019-02-18T06:20:40.029Z,5.80
2019-02-18T06:22:44.500Z,5.80
2019-02-18T06:24:51.203Z,5.80
2019-02-18T06:26:55.710Z,5.80
2019-02-18T06:29:01.670Z,5.80
2019-02-18T06:31:06.311Z,5.80
2019-02-18T06:33:13.608Z,5.80
2019-02-18T06:35:18.156Z,5.80
2019-02-18T06:37:23.412Z,5.80
2019-02-18T06:39:40.282Z,5.80
2019-02-18T06:41:35.575Z,5.70
2019-02-18T06:43:40.094Z,5.70
2019-02-18T06:46:03.936Z,5.70
2019-02-18T06:48:46.575Z,5.80
2019-02-18T06:50:51.221Z,5.80
2019-02-18T06:52:56.104Z,5.80
2019-02-18T06:55:00.954Z,5.90
2019-02-18T06:57:17.262Z,5.80
2019-02-18T06:59:26.627Z,5.90
2019-02-18T07:01:36.997Z,5.90
2019-02-18T07:06:37.491Z,6.00
2019-02-18T07:08:59.412Z,6.00
2019-02-18T07:11:23.766Z,6.10
2019-02-18T07:13:30.422Z,6.10
2019-02-18T07:15:35.886Z,6.10
2019-02-18T07:17:41.294Z,6.10
2019-02-18T07:19:46.786Z,6.10
2019-02-18T07:21:51.677Z,6.10
2019-02-18T07:23:57.005Z,6.10
2019-02-18T07:26:02.341Z,6.10
2019-02-18T07:28:09.920Z,6.20
2019-02-18T07:30:17.586Z,6.30
2019-02-18T07:32:23.877Z,6.40
2019-02-18T07:34:30.415Z,6.40
2019-02-18T07:36:54.219Z,6.40
2019-02-18T07:39:10.824Z,6.40
2019-02-18T07:41:27.291Z,6.50
2019-02-18T07:46:05.241Z,6.50
2019-02-18T07:48:10.407Z,6.60
2019-02-18T07:50:35.590Z,6.60
2019-02-18T07:52:40.281Z,6.60
2019-02-18T07:55:06.174Z,6.60
2019-02-18T07:57:11.143Z,6.60
2019-02-18T07:59:15.975Z,6.70
2019-02-18T08:01:20.517Z,6.80
2019-02-18T08:03:25.263Z,6.80
2019-02-18T08:05:30.342Z,6.80
2019-02-18T08:07:35.127Z,6.80
2019-02-18T08:09:58.866Z,6.90
2019-02-18T08:12:22.864Z,6.90
2019-02-18T08:14:28.213Z,7.00
2019-02-18T08:16:34.689Z,7.10
2019-02-18T08:18:39.004Z,7.00
2019-02-18T08:20:43.588Z,6.90
2019-02-18T08:22:48.079Z,7.00
2019-02-18T08:24:52.686Z,7.00
2019-02-18T08:27:09.827Z,7.10
2019-02-18T08:29:15.414Z,7.20
2019-02-18T08:31:38.884Z,7.20
2019-02-18T08:33:43.275Z,7.30
2019-02-18T08:35:47.623Z,7.40
2019-02-18T08:37:51.936Z,7.40
2019-02-18T08:44:49.813Z,7.50
2019-02-18T08:46:54.665Z,7.50
2019-02-18T08:51:38.216Z,7.60
2019-02-18T08:53:55.041Z,7.60
2019-02-18T08:56:11.117Z,7.70
2019-02-18T08:58:15.605Z,7.80
2019-02-18T09:00:19.922Z,7.90
2019-02-18T09:02:24.264Z,7.90
2019-02-18T09:04:28.953Z,8.00
2019-02-18T09:06:33.593Z,8.10
2019-02-18T09:08:37.898Z,8.20
2019-02-18T09:10:42.362Z,8.30
2019-02-18T09:12:46.785Z,8.40
2019-02-18T09:15:10.633Z,8.40
2019-02-18T09:17:34.210Z,8.50
2019-02-18T09:19:38.707Z,8.50
2019-02-18T09:21:43.090Z,8.60
2019-02-18T09:24:06.397Z,8.60
2019-02-18T09:28:55.132Z,8.80
2019-02-18T09:33:42.681Z,9.00
2019-02-18T09:35:48.478Z,9.00
2019-02-18T09:37:53.125Z,9.10
2019-02-18T09:42:27.291Z,9.30
2019-02-18T09:47:01.052Z,9.40
2019-02-18T09:49:17.476Z,9.50
2019-02-18T09:51:21.876Z,9.50
2019-02-18T09:53:26.661Z,9.60
2019-02-18T09:55:31.023Z,9.60
2019-02-18T09:57:54.526Z,9.60
2019-02-18T09:59:59.037Z,9.70
2019-02-18T10:02:03.451Z,9.80
2019-02-18T10:04:08.110Z,9.80
2019-02-18T10:06:12.696Z,9.80
2019-02-18T10:08:17.274Z,9.90
2019-02-18T10:10:40.786Z,10.00
2019-02-18T10:12:59.553Z,10.10
2019-02-18T10:14:53.156Z,10.20
2019-02-18T10:16:57.719Z,10.20
2019-02-18T10:19:02.432Z,10.20
2019-02-18T10:21:07.686Z,10.40
2019-02-18T10:23:13.168Z,10.50
2019-02-18T10:25:17.979Z,10.50
2019-02-18T10:27:22.867Z,10.60
2019-02-18T10:29:27.303Z,10.70
2019-02-18T10:31:50.801Z,10.70
2019-02-18T10:34:07.071Z,10.80
2019-02-18T10:41:06.135Z,11.10
2019-02-18T10:43:20.824Z,11.10
2019-02-18T10:45:37.362Z,11.10
2019-02-18T10:47:54.549Z,11.10
2019-02-18T10:50:10.529Z,11.20
2019-02-18T10:52:14.964Z,11.20
2019-02-18T10:54:20.221Z,11.30
2019-02-18T10:56:24.847Z,11.40
2019-02-18T10:59:10.959Z,11.40
2019-02-18T11:01:28.747Z,11.40
2019-02-18T11:03:33.816Z,11.40
2019-02-18T11:05:38.293Z,11.50
2019-02-18T11:07:42.761Z,11.60
2019-02-18T11:09:47.276Z,11.70
2019-02-18T11:11:52.141Z,11.80
2019-02-18T11:13:56.891Z,11.70
2019-02-18T11:16:01.459Z,11.70
2019-02-18T11:18:06.433Z,11.80
2019-02-18T11:20:11.367Z,11.80
2019-02-18T11:22:16.099Z,11.80
2019-02-18T11:24:20.854Z,11.90
2019-02-18T11:26:26.178Z,12.00
2019-02-18T11:28:31.051Z,12.00
2019-02-18T11:30:54.588Z,12.10
2019-02-18T11:32:59.216Z,12.20
2019-02-18T11:35:22.799Z,12.30
2019-02-18T11:37:39.352Z,12.30
2019-02-18T11:39:45.549Z,12.30
2019-02-18T11:41:50.153Z,12.40
2019-02-18T11:43:54.697Z,12.40
2019-02-18T11:46:19.427Z,12.50
2019-02-18T11:48:24.011Z,12.60
2019-02-18T11:50:47.786Z,12.80
2019-02-18T11:52:52.241Z,12.80
2019-02-18T11:54:56.707Z,12.90
2019-02-18T11:57:20.518Z,12.90
2019-02-18T11:59:25.244Z,13.00
2019-02-18T12:01:49.268Z,12.90
2019-02-18T12:03:54.758Z,12.80
2019-02-18T12:05:59.935Z,12.90
2019-02-18T12:08:04.619Z,13.10
2019-02-18T12:10:09.746Z,13.20
2019-02-18T12:12:33.802Z,13.20
2019-02-18T12:14:39.386Z,13.20
2019-02-18T12:16:43.881Z,13.20
2019-02-18T12:18:48.506Z,13.20
2019-02-18T12:20:53.111Z,13.30
2019-02-18T12:22:57.964Z,13.40
2019-02-18T12:25:02.825Z,13.40
2019-02-18T12:27:09.934Z,13.50
2019-02-18T12:29:14.400Z,13.60
2019-02-18T12:31:19.485Z,13.70
2019-02-18T12:33:27.553Z,13.70
2019-02-18T12:35:38.302Z,13.70
2019-02-18T12:37:43.243Z,13.70
2019-02-18T12:39:48.773Z,13.70
2019-02-18T12:41:59.337Z,13.70
2019-02-18T12:44:05.997Z,13.80
2019-02-18T12:46:15.784Z,13.80
2019-02-18T12:48:18.072Z,14.00
2019-02-18T12:50:22.906Z,14.10
2019-02-18T12:52:27.482Z,14.10
2019-02-18T12:54:32.483Z,14.10
2019-02-18T12:56:37.490Z,14.20
2019-02-18T12:59:00.949Z,14.20
2019-02-18T13:03:31.744Z,14.40
2019-02-18T13:06:15.112Z,14.40
2019-02-18T13:08:24.989Z,14.50
2019-02-18T13:13:05.637Z,14.60
2019-02-18T13:15:30.392Z,14.70
2019-02-18T13:18:15.159Z,14.70
2019-02-18T13:23:28.392Z,14.80
2019-02-18T13:25:32.873Z,15.00
2019-02-18T13:27:56.465Z,15.00
2019-02-18T13:30:00.999Z,15.10
2019-02-18T13:32:05.784Z,15.00
2019-02-18T13:34:10.880Z,14.90
2019-02-18T13:36:29.443Z,15.00
2019-02-18T13:38:42.275Z,14.90
2019-02-18T13:40:46.717Z,15.10
2019-02-18T13:43:03.560Z,15.00
2019-02-18T13:45:08.630Z,15.10
2019-02-18T13:47:13.020Z,15.10
2019-02-18T13:49:18.044Z,15.10
2019-02-18T13:51:24.519Z,15.10
2019-02-18T13:53:29.236Z,15.00
2019-02-18T13:58:13.127Z,15.20
2019-02-18T14:00:20.193Z,15.30
2019-02-18T14:02:43.740Z,15.20
2019-02-18T14:05:00.304Z,15.20
2019-02-18T14:07:18.317Z,15.40
2019-02-18T14:09:23.693Z,15.40
2019-02-18T14:11:48.199Z,15.30
2019-02-18T14:13:53.321Z,15.30
2019-02-18T14:15:57.971Z,15.30
2019-02-18T14:18:02.603Z,15.30
2019-02-18T14:20:10.683Z,15.30
2019-02-18T14:22:15.308Z,15.30
2019-02-18T14:26:30.964Z,15.30
2019-02-18T14:28:35.580Z,15.30
2019-02-18T14:30:59.167Z,15.50
2019-02-18T14:33:03.629Z,15.50
2019-02-18T14:35:20.692Z,15.50
2019-02-18T14:37:25.550Z,15.50
2019-02-18T14:39:29.992Z,15.60
2019-02-18T14:41:34.522Z,15.60
2019-02-18T14:43:39.914Z,15.60
2019-02-18T14:45:44.371Z,15.50
2019-02-18T14:47:52.194Z,15.50
2019-02-18T14:50:01.260Z,15.50
2019-02-18T14:52:05.862Z,15.40
2019-02-18T14:54:10.539Z,15.40
2019-02-18T14:58:29.785Z,15.30
2019-02-18T15:01:04.791Z,15.20
2019-02-18T15:03:09.398Z,15.30
2019-02-18T15:05:14.644Z,15.10
2019-02-18T15:07:19.757Z,15.20
2019-02-18T15:09:24.201Z,15.20
2019-02-18T15:11:49.698Z,15.10
2019-02-18T15:13:54.582Z,15.10
2019-02-18T15:15:59.666Z,15.00
2019-02-18T15:18:05.243Z,14.90
2019-02-18T15:20:11.532Z,14.80
2019-02-18T15:22:18.042Z,14.80
2019-02-18T15:24:22.740Z,14.80
2019-02-18T15:26:27.398Z,14.80
2019-02-18T15:28:31.909Z,14.80
2019-02-18T15:30:36.798Z,14.90
2019-02-18T15:32:41.720Z,14.80
2019-02-18T15:35:05.239Z,14.80
2019-02-18T15:37:09.940Z,14.70
2019-02-18T15:39:14.391Z,14.70
2019-02-18T15:41:19.029Z,14.70
2019-02-18T15:43:24.611Z,14.60
2019-02-18T15:45:41.190Z,14.50
2019-02-18T15:47:45.856Z,14.50
2019-02-18T15:49:51.540Z,14.50
2019-02-18T15:51:56.445Z,14.50
2019-02-18T15:54:02.364Z,14.50
2019-02-18T15:58:51.685Z,14.40
2019-02-18T16:01:15.924Z,14.40
2019-02-18T16:03:31.734Z,14.30
2019-02-18T16:05:36.562Z,14.30
2019-02-18T16:08:00.910Z,14.30
2019-02-18T16:10:05.939Z,14.30
2019-02-18T16:14:24.777Z,14.10
2019-02-18T16:17:09.288Z,14.00
2019-02-18T16:19:17.317Z,14.00
2019-02-18T16:21:22.448Z,13.70
2019-02-18T16:25:57.847Z,13.50
2019-02-18T16:30:17.495Z,13.20
2019-02-18T16:32:22.263Z,13.10
2019-02-18T16:34:27.179Z,13.00
2019-02-18T16:36:32.370Z,12.90
2019-02-18T16:38:37.568Z,12.80
2019-02-18T16:41:01.502Z,12.70
2019-02-18T16:43:06.957Z,12.70
2019-02-18T16:45:31.398Z,12.60
2019-02-18T16:47:36.348Z,12.50
2019-02-18T16:50:00.078Z,12.50
2019-02-18T16:52:04.786Z,12.40
2019-02-18T16:54:28.812Z,12.30
2019-02-18T16:56:33.474Z,12.20
2019-02-18T16:58:38.945Z,12.10
2019-02-18T17:01:04.101Z,12.00
2019-02-18T17:03:10.065Z,12.00
2019-02-18T17:05:15.677Z,11.90
2019-02-18T17:07:21.324Z,11.90
2019-02-18T17:11:40.336Z,11.70
2019-02-18T17:13:45.898Z,11.60
2019-02-18T17:15:50.939Z,11.60
2019-02-18T17:17:57.108Z,11.60
2019-02-18T17:20:01.818Z,11.60
2019-02-18T17:22:07.250Z,11.50
2019-02-18T17:24:12.171Z,11.50
2019-02-18T17:26:17.080Z,11.50
2019-02-18T17:28:22.361Z,11.50
2019-02-18T17:38:35.244Z,11.20
2019-02-18T17:48:33.605Z,11.00
2019-02-18T17:51:03.755Z,11.00
2019-02-18T17:53:19.644Z,11.00
2019-02-18T17:55:27.187Z,11.00
2019-02-18T17:57:32.945Z,10.90
2019-02-18T17:59:57.786Z,10.80
2019-02-18T18:02:24.279Z,10.80
2019-02-18T18:04:28.969Z,10.80
2019-02-18T18:06:33.861Z,10.70
2019-02-18T18:08:58.441Z,10.60
2019-02-18T18:11:03.639Z,10.60
2019-02-18T18:13:08.455Z,10.60
2019-02-18T18:15:15.668Z,10.50
2019-02-18T18:17:20.536Z,10.50
2019-02-18T18:19:45.577Z,10.40
2019-02-18T18:21:50.377Z,10.40
2019-02-18T18:23:55.817Z,10.40
2019-02-18T18:26:01.556Z,10.30
2019-02-18T18:28:06.423Z,10.30
2019-02-18T18:30:30.589Z,10.20
2019-02-18T18:32:46.594Z,10.10
2019-02-18T18:34:51.925Z,10.10
2019-02-18T18:37:18.248Z,10.00
2019-02-18T18:39:34.130Z,10.00
2019-02-18T18:41:39.026Z,10.00
2019-02-18T18:43:43.672Z,9.90
2019-02-18T18:45:48.466Z,9.90
2019-02-18T18:48:00.740Z,9.80
2019-02-18T18:50:10.328Z,9.90
2019-02-18T18:52:33.892Z,9.80
2019-02-18T18:54:38.785Z,9.70
2019-02-18T18:56:43.474Z,9.70
2019-02-18T18:58:48.035Z,9.70
2019-02-18T19:01:11.657Z,9.70
2019-02-18T19:03:16.575Z,9.60
2019-02-18T19:05:40.125Z,9.60
2019-02-18T19:07:44.795Z,9.50
2019-02-18T19:09:51.821Z,9.50
2019-02-18T19:11:56.882Z,9.40
2019-02-18T19:14:01.716Z,9.40
2019-02-18T19:16:06.460Z,9.40
2019-02-18T19:18:11.288Z,9.40
2019-02-18T19:20:15.789Z,9.30
2019-02-18T19:22:20.247Z,9.30
2019-02-18T19:24:25.217Z,9.30
2019-02-18T19:26:29.744Z,9.30
2019-02-18T19:28:54.740Z,9.20
2019-02-18T19:30:59.882Z,9.20
2019-02-18T19:33:06.579Z,9.10
2019-02-18T19:35:12.154Z,9.10
2019-02-18T19:37:16.759Z,9.10
2019-02-18T19:39:23.035Z,9.10
2019-02-18T19:41:28.494Z,9.00
2019-02-18T19:43:33.555Z,9.00
2019-02-18T19:45:38.704Z,9.00
2019-02-18T19:47:43.239Z,9.00
2019-02-18T19:49:47.883Z,9.00
2019-02-18T19:51:54.416Z,9.00
2019-02-18T19:54:18.077Z,9.00
2019-02-18T19:56:22.973Z,9.00
2019-02-18T19:58:28.026Z,8.90
2019-02-18T20:00:32.644Z,8.90
2019-02-18T20:02:37.418Z,8.90
2019-02-18T20:04:42.995Z,8.90
2019-02-18T20:06:48.271Z,8.90
2019-02-18T20:08:53.024Z,8.90
2019-02-18T20:10:57.815Z,8.90
2019-02-18T20:13:04.063Z,8.90
2019-02-18T20:15:09.271Z,8.90
2019-02-18T20:17:13.906Z,8.90
2019-02-18T20:19:18.716Z,8.90
2019-02-18T20:21:23.528Z,8.90
2019-02-18T20:23:47.056Z,8.90
2019-02-18T20:25:52.256Z,8.80
2019-02-18T20:27:56.848Z,8.80
2019-02-18T20:32:35.139Z,8.80
2019-02-18T20:35:16.449Z,8.70
2019-02-18T20:37:22.105Z,8.70
2019-02-18T20:39:26.917Z,8.70
2019-02-18T20:41:53.633Z,8.70
2019-02-18T20:43:58.331Z,8.70
2019-02-18T20:46:04.831Z,8.70
2019-02-18T20:48:09.429Z,8.60
2019-02-18T20:50:41.234Z,8.60
2019-02-18T20:57:38.620Z,8.60
2019-02-18T20:59:45.461Z,8.50
2019-02-18T21:01:52.281Z,8.50
2019-02-18T21:04:45.889Z,8.50
2019-02-18T21:06:50.721Z,8.50
2019-02-18T21:12:07.066Z,8.40
2019-02-18T21:14:24.706Z,8.40
2019-02-18T21:16:32.379Z,8.40
2019-02-18T21:18:50.269Z,8.30
2019-02-18T21:21:04.004Z,8.30
2019-02-18T21:23:09.884Z,8.30
2019-02-18T21:25:14.507Z,8.30
2019-02-18T21:27:39.466Z,8.20
2019-02-18T21:29:44.203Z,8.30
2019-02-18T21:31:49.689Z,8.30
2019-02-18T21:33:54.934Z,8.30
2019-02-18T21:36:03.102Z,8.20
2019-02-18T21:38:09.797Z,8.20
2019-02-18T21:40:14.346Z,8.20
2019-02-18T21:42:37.866Z,8.20
2019-02-18T21:44:54.259Z,8.10
2019-02-18T21:47:10.678Z,8.10
2019-02-18T21:49:16.452Z,8.10
2019-02-18T21:51:40.496Z,8.10
2019-02-18T21:54:04.063Z,8.10
2019-02-18T21:56:20.603Z,8.10
2019-02-18T21:58:37.190Z,8.00
2019-02-18T22:00:43.452Z,8.00
2019-02-18T22:03:07.401Z,8.00
2019-02-18T22:05:24.356Z,8.00
2019-02-18T22:07:40.764Z,8.00
2019-02-18T22:09:56.732Z,8.00
2019-02-18T22:12:13.291Z,8.00
2019-02-18T22:14:18.298Z,7.90
2019-02-18T22:18:53.384Z,7.80
2019-02-18T22:20:58.685Z,7.80
2019-02-18T22:23:26.034Z,7.80
2019-02-18T22:25:33.346Z,7.80
2019-02-18T22:27:39.153Z,7.70
2019-02-18T22:29:45.071Z,7.70
2019-02-18T22:32:27.646Z,7.70
2019-02-18T22:34:32.524Z,7.70
2019-02-18T22:36:38.317Z,7.70
2019-02-18T22:38:43.643Z,7.70
2019-02-18T22:40:48.597Z,7.60
2019-02-18T22:42:53.270Z,7.60
2019-02-18T22:44:58.084Z,7.60
2019-02-18T22:47:03.652Z,7.60
2019-02-18T22:49:09.591Z,7.60
2019-02-18T22:51:14.515Z,7.60
2019-02-18T22:53:20.555Z,7.50
2019-02-18T22:55:25.822Z,7.50
2019-02-18T22:57:30.796Z,7.50
2019-02-18T22:59:37.263Z,7.50
2019-02-18T23:01:42.572Z,7.50
2019-02-18T23:03:47.121Z,7.50
2019-02-18T23:05:59.008Z,7.50
2019-02-18T23:08:03.478Z,7.60
2019-02-18T23:10:28.096Z,7.50
2019-02-18T23:12:52.419Z,7.60
2019-02-18T23:14:56.988Z,7.60
2019-02-18T23:17:01.773Z,7.60
2019-02-18T23:19:06.181Z,7.60
2019-02-18T23:21:12.391Z,7.50
2019-02-18T23:23:36.488Z,7.50
2019-02-18T23:25:41.797Z,7.50
2019-02-18T23:27:46.376Z,7.50
2019-02-18T23:29:51.287Z,7.50
2019-02-18T23:31:55.965Z,7.50
2019-02-18T23:34:00.576Z,7.40
2019-02-18T23:36:05.045Z,7.40
2019-02-18T23:38:28.968Z,7.40
2019-02-18T23:40:52.510Z,7.40
2019-02-18T23:42:56.996Z,7.50
2019-02-18T23:45:20.964Z,7.40
2019-02-18T23:47:25.690Z,7.50
2019-02-18T23:49:49.745Z,7.50
2019-02-18T23:51:54.168Z,7.50
2019-02-18T23:53:59.070Z,7.50
2019-02-18T23:56:03.554Z,7.50
2019-02-18T23:58:08.691Z,7.50
